createdAt,value
2022-08-09T00:00:17.715Z,6.78
2022-08-09T00:02:49.248Z,7.27
2022-08-09T00:06:18.879Z,7.68
2022-08-09T00:08:31.486Z,8.90
2022-08-09T00:11:05.852Z,8.52
2022-08-09T00:13:53.072Z,7.78
2022-08-09T00:16:26.368Z,9.30
2022-08-09T00:19:09.400Z,9.90
2022-08-09T00:21:55.662Z,9.23
2022-08-09T00:24:27.721Z,8.77
2022-08-09T00:26:59.821Z,8.38
2022-08-09T00:29:39.822Z,9.07
2022-08-09T00:32:25.498Z,11.20
2022-08-09T00:34:58.711Z,11.18
2022-08-09T00:37:32.525Z,10.60
2022-08-09T00:40:13.597Z,9.27
2022-08-09T00:44:16.635Z,9.33
2022-08-09T00:45:39.301Z,9.32
2022-08-09T00:48:22.386Z,9.60
2022-08-09T00:50:52.400Z,9.98
2022-08-09T00:53:24.100Z,9.70
2022-08-09T00:56:05.405Z,8.33
2022-08-09T00:58:39.752Z,8.35
2022-08-09T01:01:17.465Z,8.02
2022-08-09T01:03:59.205Z,9.57
2022-08-09T01:06:53.337Z,11.27
2022-08-09T01:09:36.802Z,9.57
2022-08-09T01:12:18.045Z,9.55
2022-08-09T01:15:06.082Z,10.43
2022-08-09T01:17:44.750Z,9.65
2022-08-09T01:20:25.049Z,8.35
2022-08-09T01:24:01.868Z,7.70
2022-08-09T01:26:54.336Z,8.32
2022-08-09T01:29:41.192Z,6.00
2022-08-09T01:32:32.647Z,7.28
2022-08-09T01:35:29.147Z,6.43
2022-08-09T01:38:10.519Z,5.90
2022-08-09T01:40:52.787Z,5.30
2022-08-09T01:43:50.291Z,7.82
2022-08-09T01:46:26.804Z,5.93
2022-08-09T01:49:10.593Z,10.05
2022-08-09T01:51:55.762Z,8.83
2022-08-09T01:54:32.904Z,8.52
2022-08-09T01:57:14.790Z,7.20
2022-08-09T01:59:52.446Z,5.13
2022-08-09T02:02:33.018Z,6.22
2022-08-09T02:05:15.267Z,6.30
2022-08-09T02:08:35.815Z,10.05
2022-08-09T02:10:42.797Z,9.23
2022-08-09T02:13:26.139Z,6.95
2022-08-09T02:16:12.622Z,6.07
2022-08-09T02:18:47.773Z,5.27
2022-08-09T02:21:22.133Z,8.10
2022-08-09T02:23:56.729Z,7.03
2022-08-09T02:26:30.983Z,7.30
2022-08-09T02:29:12.020Z,8.00
2022-08-09T02:31:47.525Z,9.10
2022-08-09T02:34:38.620Z,8.70
2022-08-09T02:37:16.040Z,9.05
2022-08-09T02:39:55.318Z,7.18
2022-08-09T02:42:36.177Z,6.70
2022-08-09T02:45:09.482Z,6.37
2022-08-09T02:47:57.210Z,6.00
2022-08-09T02:50:36.333Z,5.63
2022-08-09T02:53:25.719Z,5.47
2022-08-09T02:56:01.070Z,4.95
2022-08-09T02:58:36.946Z,4.63
2022-08-09T03:01:10.860Z,4.30
2022-08-09T03:04:17.714Z,4.00
2022-08-09T03:06:33.230Z,4.93
2022-08-09T03:09:07.216Z,4.55
2022-08-09T03:12:10.420Z,4.10
2022-08-09T03:14:32.163Z,3.80
2022-08-09T03:17:08.235Z,4.75
2022-08-09T03:19:58.276Z,4.30
2022-08-09T03:22:41.840Z,4.25
2022-08-09T03:25:26.211Z,3.87
2022-08-09T03:28:11.433Z,4.97
2022-08-09T03:30:40.951Z,4.78
2022-08-09T03:33:18.858Z,4.20
2022-08-09T03:36:12.430Z,4.30
2022-08-09T03:38:44.565Z,4.83
2022-08-09T03:41:16.673Z,4.43
2022-08-09T03:44:02.807Z,97.55
2022-08-09T03:46:37.751Z,58.80
2022-08-09T03:49:09.895Z,105.88
2022-08-09T03:51:58.247Z,11.30
2022-08-09T03:54:32.828Z,9.68
2022-08-09T03:57:18.283Z,18.30
2022-08-09T03:59:55.391Z,23.00
2022-08-09T04:02:28.659Z,20.75
2022-08-09T04:05:00.910Z,28.63
2022-08-09T04:07:52.558Z,34.13
2022-08-09T04:10:29.099Z,50.65
2022-08-09T04:13:04.439Z,46.10
2022-08-09T04:15:40.668Z,34.08
2022-08-09T04:18:25.065Z,17.30
2022-08-09T04:20:54.401Z,13.75
2022-08-09T04:23:25.814Z,14.48
2022-08-09T04:25:55.771Z,15.20
2022-08-09T04:28:33.483Z,14.07
2022-08-09T04:31:12.970Z,12.57
2022-08-09T04:33:52.204Z,12.10
2022-08-09T04:36:28.093Z,11.68
2022-08-09T04:39:00.611Z,10.80
2022-08-09T04:41:32.299Z,10.90
2022-08-09T04:44:12.221Z,10.23
2022-08-09T04:46:59.486Z,10.15
2022-08-09T04:49:53.000Z,10.77
2022-08-09T04:52:28.917Z,10.52
2022-08-09T04:55:06.493Z,10.50
2022-08-09T04:57:59.432Z,11.30
2022-08-09T05:00:36.011Z,11.20
2022-08-09T05:03:30.507Z,12.07
2022-08-09T05:06:06.669Z,15.63
2022-08-09T05:08:36.837Z,16.08
2022-08-09T05:11:08.904Z,15.20
2022-08-09T05:13:39.174Z,15.50
2022-08-09T05:16:10.167Z,16.98
2022-08-09T05:18:50.452Z,18.98
2022-08-09T05:21:29.921Z,19.23
2022-08-09T05:24:03.882Z,19.97
2022-08-09T05:26:45.275Z,17.23
2022-08-09T05:29:21.199Z,16.60
2022-08-09T05:32:00.252Z,14.63
2022-08-09T05:34:31.877Z,13.23
2022-08-09T05:37:05.165Z,12.30
2022-08-09T05:39:48.808Z,12.95
2022-08-09T05:42:22.035Z,13.50
2022-08-09T05:45:01.003Z,12.40
2022-08-09T05:47:33.668Z,12.95
2022-08-09T05:50:31.249Z,14.57
2022-08-09T05:52:57.334Z,12.15
2022-08-09T05:55:26.997Z,12.73
2022-08-09T05:57:58.425Z,12.18
2022-08-09T06:00:29.628Z,13.20
2022-08-09T06:02:59.518Z,12.63
2022-08-09T06:05:31.095Z,11.85
2022-08-09T06:08:24.426Z,11.05
2022-08-09T06:10:56.156Z,9.60
2022-08-09T06:13:33.733Z,11.45
2022-08-09T06:16:04.647Z,11.17
2022-08-09T06:18:36.991Z,11.85
2022-08-09T06:21:08.260Z,12.55
2022-08-09T06:23:57.223Z,12.52
2022-08-09T06:26:28.959Z,10.43
2022-08-09T06:29:05.175Z,11.10
2022-08-09T06:31:40.126Z,10.20
2022-08-09T06:34:26.063Z,9.63
2022-08-09T06:36:59.861Z,9.48
2022-08-09T06:39:48.450Z,9.23
2022-08-09T06:42:30.661Z,8.70
2022-08-09T06:45:20.371Z,8.68
2022-08-09T06:48:00.524Z,7.07
2022-08-09T06:50:31.134Z,6.75
2022-08-09T06:53:02.764Z,6.97
2022-08-09T06:55:33.204Z,6.43
2022-08-09T06:58:04.561Z,5.82
2022-08-09T07:00:52.842Z,6.50
2022-08-09T07:03:28.241Z,6.00
2022-08-09T07:06:03.513Z,5.97
2022-08-09T07:08:33.609Z,5.20
2022-08-09T07:11:06.058Z,6.03
2022-08-09T07:14:04.310Z,5.82
2022-08-09T07:16:43.361Z,3.85
2022-08-09T07:19:18.619Z,3.75
2022-08-09T07:21:55.458Z,3.87
2022-08-09T07:24:32.691Z,3.38
2022-08-09T07:27:26.957Z,4.75
2022-08-09T07:30:02.476Z,3.55
2022-08-09T07:32:34.933Z,2.67
2022-08-09T07:35:08.106Z,1.70
2022-08-09T07:37:44.218Z,1.60
2022-08-09T07:40:20.144Z,1.67
2022-08-09T07:42:55.735Z,1.00
2022-08-09T07:45:38.113Z,1.13
2022-08-09T07:48:28.605Z,3.17
2022-08-09T07:51:09.729Z,1.10
2022-08-09T07:54:07.186Z,1.60
2022-08-09T07:56:38.976Z,1.13
2022-08-09T07:59:25.011Z,2.10
2022-08-09T08:01:56.388Z,2.77
2022-08-09T08:04:31.583Z,2.40
2022-08-09T08:07:09.628Z,2.20
2022-08-09T08:10:04.687Z,2.55
2022-08-09T08:12:45.488Z,1.42
2022-08-09T08:15:24.103Z,1.17
2022-08-09T08:17:58.228Z,1.50
2022-08-09T08:20:32.692Z,2.03
2022-08-09T08:23:16.047Z,2.65
2022-08-09T08:25:50.273Z,3.15
2022-08-09T08:28:32.849Z,3.33
2022-08-09T08:31:08.893Z,1.80
2022-08-09T08:33:52.501Z,3.97
2022-08-09T08:36:28.952Z,4.18
2022-08-09T08:39:05.478Z,3.20
2022-08-09T08:41:41.841Z,2.23
2022-08-09T08:44:28.863Z,1.10
2022-08-09T08:47:02.975Z,1.10
2022-08-09T08:49:47.232Z,1.30
2022-08-09T08:52:57.933Z,1.20
2022-08-09T08:55:23.161Z,0.90
2022-08-09T08:57:57.618Z,1.00
2022-08-09T09:00:30.354Z,0.90
2022-08-09T09:03:11.362Z,0.70
2022-08-09T09:06:00.083Z,0.60
2022-08-09T09:08:42.064Z,1.50
2022-08-09T09:11:13.740Z,1.70
2022-08-09T09:13:58.490Z,1.23
2022-08-09T09:16:33.566Z,1.20
2022-08-09T09:22:11.726Z,1.00
2022-08-09T09:24:46.189Z,1.40
2022-08-09T09:28:04.499Z,1.15
2022-08-09T09:30:31.608Z,0.90
2022-08-09T09:33:13.895Z,0.95
2022-08-09T09:36:01.508Z,1.20
2022-08-09T09:38:48.277Z,1.00
2022-08-09T09:41:49.394Z,0.93
2022-08-09T09:44:27.759Z,0.63
2022-08-09T09:47:08.498Z,0.80
2022-08-09T09:50:07.179Z,1.30
2022-08-09T09:52:36.321Z,1.10
2022-08-09T09:55:24.267Z,0.60
2022-08-09T09:58:17.159Z,0.52
2022-08-09T10:00:55.066Z,0.50
2022-08-09T10:03:44.644Z,0.60
2022-08-09T10:06:25.213Z,0.40
2022-08-09T10:09:12.058Z,0.40
2022-08-09T10:12:14.599Z,0.50
2022-08-09T10:14:51.519Z,0.47
2022-08-09T10:17:40.304Z,0.80
2022-08-09T10:20:35.516Z,0.60
2022-08-09T10:23:22.008Z,0.90
2022-08-09T10:26:07.185Z,0.80
2022-08-09T10:28:41.770Z,0.40
2022-08-09T10:34:10.251Z,1.80
2022-08-09T10:36:56.763Z,1.08
2022-08-09T10:39:28.507Z,0.50
2022-08-09T10:41:57.980Z,0.60
2022-08-09T10:44:31.755Z,0.73
2022-08-09T10:48:17.164Z,0.95
2022-08-09T10:50:31.093Z,0.75
2022-08-09T10:53:12.965Z,0.60
2022-08-09T10:55:58.492Z,1.27
2022-08-09T10:58:34.926Z,0.60
2022-08-09T11:03:14.212Z,0.80
2022-08-09T11:04:33.884Z,0.60
2022-08-09T11:07:57.369Z,0.50
2022-08-09T11:11:00.628Z,0.82
2022-08-09T11:13:50.763Z,0.80
2022-08-09T11:16:39.300Z,0.60
2022-08-09T11:19:11.368Z,0.80
2022-08-09T11:22:10.322Z,1.58
2022-08-09T11:25:09.827Z,1.13
2022-08-09T11:28:08.429Z,0.63
2022-08-09T11:30:37.527Z,0.70
2022-08-09T11:33:22.537Z,1.00
2022-08-09T11:35:58.720Z,0.90
2022-08-09T11:38:34.853Z,0.60
2022-08-09T11:41:37.463Z,0.60
2022-08-09T11:44:07.655Z,1.13
2022-08-09T11:47:00.966Z,1.10
2022-08-09T11:50:54.794Z,0.90
2022-08-09T11:53:59.742Z,1.15
2022-08-09T11:56:41.772Z,1.77
2022-08-09T11:59:14.298Z,1.00
2022-08-09T12:02:17.754Z,0.60
2022-08-09T12:04:37.505Z,0.80
2022-08-09T12:07:08.328Z,0.60
2022-08-09T12:09:39.283Z,1.27
2022-08-09T12:12:20.574Z,4.72
2022-08-09T12:15:07.526Z,2.58
2022-08-09T12:17:43.549Z,1.00
2022-08-09T12:20:24.021Z,2.10
2022-08-09T12:22:57.968Z,1.73
2022-08-09T12:25:37.548Z,1.40
2022-08-09T12:29:14.149Z,1.60
2022-08-09T12:31:02.988Z,0.98
2022-08-09T12:33:58.688Z,1.20
2022-08-09T12:36:32.199Z,0.80
2022-08-09T12:39:04.282Z,0.80
2022-08-09T12:41:39.910Z,1.00
2022-08-09T12:44:12.905Z,0.60
2022-08-09T12:46:49.343Z,0.50
2022-08-09T12:49:21.449Z,0.80
2022-08-09T12:52:00.992Z,0.60
2022-08-09T12:56:11.015Z,0.80
2022-08-09T12:57:48.617Z,0.65
2022-08-09T13:00:25.114Z,0.57
2022-08-09T13:02:57.369Z,0.70
2022-08-09T13:05:50.717Z,0.60
2022-08-09T13:08:40.158Z,0.50
2022-08-09T13:11:22.922Z,0.60
2022-08-09T13:14:42.859Z,0.80
2022-08-09T13:16:51.027Z,0.60
2022-08-09T13:20:09.336Z,1.00
2022-08-09T13:22:35.319Z,0.90
2022-08-09T13:25:13.689Z,0.95
2022-08-09T13:27:54.483Z,1.30
2022-08-09T13:30:51.077Z,1.07
2022-08-09T13:33:52.719Z,1.30
2022-08-09T13:36:39.026Z,1.63
2022-08-09T13:41:19.118Z,1.20
2022-08-09T13:42:03.064Z,1.25
2022-08-09T13:44:33.896Z,1.53
2022-08-09T13:47:28.847Z,1.20
2022-08-09T13:49:57.680Z,1.50
2022-08-09T13:52:30.988Z,0.95
2022-08-09T13:55:04.614Z,1.50
2022-08-09T13:57:40.328Z,1.10
2022-08-09T14:00:15.477Z,1.20
2022-08-09T14:03:16.967Z,1.00
2022-08-09T14:05:58.992Z,1.35
2022-08-09T14:08:28.332Z,1.27
2022-08-09T14:11:15.901Z,1.67
2022-08-09T14:14:23.470Z,1.20
2022-08-09T14:16:36.797Z,0.90
2022-08-09T14:19:07.224Z,0.88
2022-08-09T14:21:36.195Z,0.55
2022-08-09T14:24:18.394Z,0.77
2022-08-09T14:26:51.759Z,0.70
2022-08-09T14:30:04.424Z,0.50
2022-08-09T14:32:13.304Z,0.60
2022-08-09T14:34:46.752Z,1.00
2022-08-09T14:37:28.248Z,0.50
2022-08-09T14:39:57.625Z,0.40
2022-08-09T14:42:30.655Z,0.45
2022-08-09T14:46:57.429Z,0.60
2022-08-09T14:47:58.799Z,0.60
2022-08-09T14:50:36.883Z,0.70
2022-08-09T14:53:12.251Z,0.40
2022-08-09T14:55:48.036Z,0.40
2022-08-09T14:58:19.899Z,0.43
2022-08-09T15:00:51.199Z,0.40
2022-08-09T15:03:22.474Z,0.77
2022-08-09T15:05:56.702Z,0.60
2022-08-09T15:08:30.421Z,0.82
2022-08-09T15:11:01.729Z,0.70
2022-08-09T15:13:48.080Z,0.77
2022-08-09T15:16:29.684Z,1.03
2022-08-09T15:19:05.658Z,0.93
2022-08-09T15:21:58.347Z,1.38
2022-08-09T15:24:31.337Z,0.55
2022-08-09T15:27:00.885Z,0.70
2022-08-09T15:30:58.379Z,0.50
2022-08-09T15:32:29.152Z,1.05
2022-08-09T15:35:40.438Z,1.10
2022-08-09T15:38:03.991Z,0.52
2022-08-09T15:40:44.198Z,0.60
2022-08-09T15:43:14.226Z,0.50
2022-08-09T15:46:07.951Z,0.60
2022-08-09T15:48:35.896Z,0.73
2022-08-09T15:51:11.611Z,0.47
2022-08-09T15:54:08.011Z,0.75
2022-08-09T15:56:47.751Z,0.60
2022-08-09T15:59:18.968Z,0.82
2022-08-09T16:01:48.160Z,0.68
2022-08-09T16:04:16.911Z,0.40
2022-08-09T16:06:52.354Z,0.70
2022-08-09T16:09:32.543Z,0.47
2022-08-09T16:12:16.149Z,0.60
2022-08-09T16:14:45.051Z,0.77
2022-08-09T16:17:16.898Z,0.65
2022-08-09T16:19:49.477Z,0.80
2022-08-09T16:22:34.663Z,0.90
2022-08-09T16:25:09.389Z,0.70
2022-08-09T16:27:40.760Z,0.75
2022-08-09T16:30:15.264Z,0.85
2022-08-09T16:33:10.111Z,1.52
2022-08-09T16:35:56.121Z,1.43
2022-08-09T16:38:27.773Z,1.40
2022-08-09T16:41:04.083Z,1.85
2022-08-09T16:43:33.936Z,1.15
2022-08-09T16:46:10.888Z,1.33
2022-08-09T16:48:56.842Z,3.30
2022-08-09T16:51:31.306Z,2.13
2022-08-09T16:54:25.941Z,1.35
2022-08-09T16:56:54.480Z,2.22
2022-08-09T16:59:25.605Z,1.92
2022-08-09T17:01:54.787Z,1.40
2022-08-09T17:04:28.950Z,1.15
2022-08-09T17:08:46.438Z,1.30
2022-08-09T17:09:48.845Z,0.95
2022-08-09T17:12:20.855Z,0.90
2022-08-09T17:14:54.884Z,0.70
2022-08-09T17:17:27.893Z,0.85
2022-08-09T17:20:32.782Z,0.88
2022-08-09T17:22:52.276Z,0.80
2022-08-09T17:25:25.391Z,1.30
2022-08-09T17:28:10.249Z,0.60
2022-08-09T17:30:47.729Z,0.80
2022-08-09T17:33:22.542Z,1.42
2022-08-09T17:35:52.922Z,1.05
2022-08-09T17:38:30.663Z,0.80
2022-08-09T17:41:04.814Z,0.70
2022-08-09T17:43:38.528Z,0.55
2022-08-09T17:46:10.062Z,0.93
2022-08-09T17:48:52.045Z,0.60
2022-08-09T17:51:23.298Z,0.93
2022-08-09T17:53:55.883Z,0.90
2022-08-09T17:56:35.283Z,1.05
2022-08-09T17:59:11.571Z,1.20
2022-08-09T18:02:07.964Z,0.82
2022-08-09T18:04:31.747Z,0.88
2022-08-09T18:07:07.448Z,1.23
2022-08-09T18:09:41.737Z,1.05
2022-08-09T18:12:15.079Z,1.20
2022-08-09T18:14:54.570Z,1.38
2022-08-09T18:18:01.615Z,1.45
2022-08-09T18:20:55.624Z,0.93
2022-08-09T18:24:11.543Z,1.80
2022-08-09T18:26:00.685Z,1.67
2022-08-09T18:30:42.267Z,1.40
2022-08-09T18:31:32.333Z,1.67
2022-08-09T18:34:19.726Z,1.60
2022-08-09T18:36:55.534Z,1.70
2022-08-09T18:39:44.197Z,1.60
2022-08-09T18:42:20.158Z,1.30
2022-08-09T18:45:00.760Z,1.70
2022-08-09T18:47:37.686Z,1.97
2022-08-09T18:50:09.111Z,1.75
2022-08-09T18:52:42.837Z,1.70
2022-08-09T18:55:14.031Z,2.22
2022-08-09T18:57:45.375Z,1.50
2022-08-09T19:00:20.407Z,1.90
2022-08-09T19:02:54.555Z,1.50
2022-08-09T19:05:28.646Z,2.00
2022-08-09T19:08:18.577Z,1.95
2022-08-09T19:10:50.719Z,1.88
2022-08-09T19:13:38.071Z,1.83
2022-08-09T19:16:12.998Z,2.00
2022-08-09T19:18:45.529Z,2.00
2022-08-09T19:21:15.584Z,1.60
2022-08-09T19:24:32.423Z,1.83
2022-08-09T19:26:38.554Z,1.53
2022-08-09T19:29:18.329Z,1.83
2022-08-09T19:31:59.924Z,2.53
2022-08-09T19:34:41.261Z,2.85
2022-08-09T19:37:17.050Z,3.05
2022-08-09T19:40:05.084Z,2.47
2022-08-09T19:42:42.609Z,5.70
2022-08-09T19:45:21.841Z,3.85
2022-08-09T19:47:56.042Z,3.30
2022-08-09T19:50:49.096Z,2.83
2022-08-09T19:53:21.805Z,2.63
2022-08-09T19:56:06.067Z,2.72
2022-08-09T19:58:40.508Z,2.75
2022-08-09T20:01:26.236Z,2.80
2022-08-09T20:04:25.278Z,3.20
2022-08-09T20:07:09.139Z,2.63
2022-08-09T20:09:44.276Z,3.80
2022-08-09T20:12:27.416Z,4.82
2022-08-09T20:16:35.050Z,4.82
2022-08-09T20:18:01.636Z,5.10
2022-08-09T20:20:30.929Z,4.63
2022-08-09T20:23:01.046Z,4.10
2022-08-09T20:25:30.373Z,4.07
2022-08-09T20:28:27.436Z,3.45
2022-08-09T20:31:02.741Z,2.20
2022-08-09T20:33:39.093Z,3.43
2022-08-09T20:36:10.903Z,2.95
2022-08-09T20:41:34.712Z,3.20
2022-08-09T20:44:09.977Z,2.80
2022-08-09T20:46:43.870Z,3.20
2022-08-09T20:49:15.821Z,2.97
2022-08-09T20:51:50.568Z,3.03
2022-08-09T20:54:22.011Z,3.75
2022-08-09T20:56:55.064Z,3.40
2022-08-09T21:00:19.359Z,3.50
2022-08-09T21:02:18.404Z,3.95
2022-08-09T21:05:51.485Z,3.40
2022-08-09T21:07:40.211Z,3.33
2022-08-09T21:10:12.114Z,3.55
2022-08-09T21:15:34.580Z,3.22
2022-08-09T21:18:29.636Z,3.35
2022-08-09T21:20:54.474Z,3.22
2022-08-09T21:23:26.279Z,3.30
2022-08-09T21:26:15.539Z,4.23
2022-08-09T21:28:55.423Z,3.80
2022-08-09T21:31:48.506Z,3.58
2022-08-09T21:34:21.031Z,3.58
2022-08-09T21:36:57.848Z,4.25
2022-08-09T21:39:41.528Z,4.33
2022-08-09T21:42:13.041Z,4.38
2022-08-09T21:44:42.666Z,4.05
2022-08-09T21:47:17.488Z,3.95
2022-08-09T21:49:48.231Z,3.53
2022-08-09T21:52:20.957Z,3.90
2022-08-09T21:55:02.827Z,3.65
2022-08-09T21:57:59.249Z,3.25
2022-08-09T22:00:32.252Z,2.95
2022-08-09T22:03:04.882Z,3.40
2022-08-09T22:05:37.454Z,2.90
2022-08-09T22:08:15.254Z,2.60
2022-08-09T22:11:05.272Z,2.50
2022-08-09T22:13:37.207Z,2.60
2022-08-09T22:16:09.468Z,2.78
2022-08-09T22:18:53.059Z,3.10
2022-08-09T22:21:44.671Z,2.60
2022-08-09T22:24:20.859Z,3.25
2022-08-09T22:26:53.008Z,2.80
2022-08-09T22:29:45.989Z,2.80
2022-08-09T22:32:29.404Z,2.87
2022-08-09T22:35:02.589Z,3.00
2022-08-09T22:37:40.601Z,2.95
2022-08-09T22:40:20.170Z,3.08
2022-08-09T22:42:49.436Z,3.05
2022-08-09T22:48:11.731Z,3.10
2022-08-09T22:48:19.509Z,2.97
2022-08-09T22:50:56.890Z,3.08
2022-08-09T22:53:26.028Z,3.90
2022-08-09T22:56:32.791Z,2.70
2022-08-09T22:59:58.442Z,2.90
2022-08-09T23:01:56.855Z,2.83
2022-08-09T23:04:25.936Z,2.90
2022-08-09T23:07:13.997Z,3.35
2022-08-09T23:09:44.869Z,2.70
2022-08-09T23:12:13.534Z,3.50
2022-08-09T23:14:42.764Z,2.83
2022-08-09T23:17:12.935Z,3.22
2022-08-09T23:20:06.627Z,3.10
2022-08-09T23:22:30.697Z,3.47
2022-08-09T23:24:59.497Z,3.30
2022-08-09T23:27:28.142Z,3.13
2022-08-09T23:29:56.886Z,3.50
2022-08-09T23:32:27.026Z,3.30
2022-08-09T23:34:55.744Z,3.88
2022-08-09T23:37:35.071Z,4.17
2022-08-09T23:40:08.249Z,4.15
2022-08-09T23:42:37.127Z,3.42
2022-08-09T23:45:11.149Z,3.70
2022-08-09T23:48:04.265Z,3.38
2022-08-09T23:50:37.471Z,3.40
2022-08-09T23:53:06.339Z,3.53
2022-08-09T23:55:38.344Z,3.33
2022-08-09T23:58:25.489Z,3.63
